Impacts METAR Board
IDs:

KLAS - Las Vegas/McCarran I, NV, US

Updated at: 0100 UTC 18 Aug 2018
Potential Impact None Slight Moderate High
Time 17/13Z 17/14Z 17/15Z 17/16Z 17/17Z 17/18Z 17/19Z 17/20Z 17/21Z 17/22Z 17/23Z 18/00Z 18/01Z
Temp82 83 86 88 91 94 96 98 101 101 101 102 102
Dewpt57 59 59 60 59 57 57 56 56 55 58 55 54
Altim30.04 30.06 30.07 30.08 30.08 30.07 30.05 30.03 30.01 29.98 29.96 29.94 29.93
VIS10 10 10 10 10 10 10 10 10 10 10 10 10
CIG-- -- -- -- -- -- -- -- -- -- -- -- --
CoverFEWFEWFEWFEWFEWFEWSCTSCTSCTSCTSCTSCTSCT
FltCatVFRVFRVFRVFRVFRVFRVFRVFRVFRVFRVFRVFRVFR
WX--------------------------
WDir18000000130001400900
WSpd4 0 0 0 3 4 4 5 0 3 0 8 5
WGst-- -- -- -- -- -- -- -- -- -- -- -- --
Raw hourly METARs
KLAS 171256Z 18004KT 10SM FEW250 28/14 A3004 RMK AO2 SLP145 T02780139
KLAS 171356Z 00000KT 10SM FEW250 28/15 A3006 RMK AO2 SLP149 T02830150
KLAS 171456Z 00000KT 10SM FEW250 30/15 A3007 RMK AO2 SLP153 T03000150 52014
KLAS 171556Z 00000KT 10SM FEW110 FEW250 31/16 A3008 RMK AO2 SLP157 T03110156
KLAS 171656Z VRB03KT 10SM FEW110 FEW250 33/15 A3008 RMK AO2 SLP157 T03280150
KLAS 171756Z VRB04KT 10SM FEW110 34/14 A3007 RMK AO2 SLP152 ACC DSNT ALQDS T03440139 10344 20278 58001
KLAS 171856Z 13004KT 10SM SCT110 36/14 A3005 RMK AO2 SLP146 TCU DSNT N AND NW ACC DSNT ALQDS T03560139
KLAS 171956Z VRB05KT 10SM SCT110 37/13 A3003 RMK AO2 SLP138 ACC DSNT ALQDS T03670133
KLAS 172056Z 00000KT 10SM SCT110 38/13 A3001 RMK AO2 SLP131 ACC DSNT ALQDS T03830133 58019
KLAS 172156Z 14003KT 10SM SCT090 SCT150 38/13 A2998 RMK AO2 SLP120 ACC ALQDS CB DSNT NE-SE T03830128
KLAS 172256Z 00000KT 10SM SCT090 SCT150 38/14 A2996 RMK AO2 SLP113 ACC ALQDS CB DSNT NE AND SE T03830144
KLAS 172356Z 09008KT 10SM FEW090 SCT150 39/13 A2994 RMK AO2 SLP108 CB DSNT SE T03890128 10400 20344 56021
KLAS 180056Z VRB05KT 10SM FEW090 FEW150 SCT220 39/12 A2993 RMK AO2 SLP103 CB DSNT E AND SE T03890122



Page loaded:  01:26 UTC  |   06:26 PM Pacific  |   07:26 PM Mountain  |   08:26 PM Central  |   09:26 PM Eastern

 

ADVISORIES

FORECASTS

FORECASTS

OBSERVATIONS

USER TOOLS

ABOUT US